CDT,Max TemperatureF,Mean TemperatureF,Min TemperatureF,Max Dew PointF,MeanDew PointF,Min DewpointF,Max Humidity, Mean Humidity, Min Humidity, Max Sea Level PressureIn, Mean Sea Level PressureIn, Min Sea Level PressureIn, Max VisibilityMiles, Mean VisibilityMiles, Min VisibilityMiles, Max Wind SpeedMPH, Mean Wind SpeedMPH, Max Gust SpeedMPH,PrecipitationIn, CloudCover, Events, WindDirDegrees
2012-10-1,72,60,48,50,45,43,86,62,38,29.92,29.87,29.82,10,10,10,12,6,15,0.00,0,,162
2012-10-2,73,61,48,51,46,42,93,63,33,29.96,29.90,29.85,10,10,9,12,5,15,0.00,0,,308
2012-10-3,77,61,45,48,46,43,100,66,31,29.97,29.92,29.87,10,9,6,12,5,15,0.00,0,,155
2012-10-4,60,52,43,50,38,28,77,57,36,30.14,30.00,29.86,10,10,10,26,15,32,0.00,1,,257
2012-10-5,53,47,40,30,26,23,65,50,35,30.16,30.12,30.07,10,10,10,25,16,31,0.00,3,,287
2012-10-6,45,42,39,28,25,20,64,52,39,30.25,30.20,30.10,10,10,10,23,11,31,0.00,8,,324
2012-10-7,52,40,28,28,22,14,85,54,22,30.24,30.15,30.02,10,10,10,18,7,20,0.00,2,,207
2012-10-8,67,54,41,33,29,23,57,42,26,30.01,29.85,29.72,10,10,10,28,16,37,T,3,,186
2012-10-9,56,49,41,46,40,28,93,67,40,29.95,29.82,29.75,10,9,5,20,9,28,0.17,7,Rain,235
2012-10-10,52,43,34,30,26,22,70,50,30,30.13,30.06,29.96,10,10,10,24,11,31,0.00,1,,274
2012-10-11,54,43,32,33,27,17,61,47,33,30.35,30.07,29.91,10,10,10,24,10,31,T,4,,282
2012-10-12,52,38,24,32,23,19,88,58,28,30.51,30.37,30.14,10,10,10,15,5,21,0.02,1,Rain,153
2012-10-13,61,52,42,60,50,34,100,91,82,30.13,29.82,29.67,10,4,1,13,6,18,0.45,8,Rain-Thunderstorm,144
2012-10-14,55,45,35,54,46,36,100,90,80,29.87,29.69,29.60,10,5,1,22,8,26,0.90,6,Rain,334
2012-10-15,61,46,31,41,35,30,100,71,42,29.98,29.90,29.85,10,4,0,7,2,10,0.00,0,Fog,139
2012-10-16,72,59,46,49,45,41,89,67,44,29.85,29.58,29.40,10,10,10,17,7,22,0.00,1,,153
2012-10-17,64,56,47,53,47,39,93,74,55,29.39,29.31,29.28,10,10,8,20,10,25,T,3,,196
2012-10-18,49,46,42,43,41,38,96,84,71,29.40,29.28,29.23,10,10,9,14,6,17,0.05,8,Rain,200
2012-10-19,53,44,34,43,39,34,100,77,54,29.73,29.56,29.41,10,10,10,12,5,14,0.00,6,,332
2012-10-20,57,43,28,39,34,28,100,74,47,29.90,29.80,29.73,10,5,0,7,2,13,0.00,2,Fog,168
2012-10-21,70,55,39,48,42,36,92,66,39,29.95,29.89,29.83,10,10,10,17,7,21,0.00,0,,152
2012-10-22,65,56,47,54,50,46,93,78,63,29.91,29.89,29.86,10,10,9,14,5,17,0.00,6,,20
2012-10-23,69,63,56,62,57,52,93,83,73,29.88,29.80,29.72,10,8,3,12,7,15,T,8,Rain,124
2012-10-24,72,67,61,64,63,60,100,89,78,29.82,29.74,29.64,10,8,2,12,6,13,0.82,8,Rain-Thunderstorm,160
2012-10-25,62,51,39,61,48,26,100,80,59,30.15,29.69,29.51,10,7,2,32,15,40,0.92,8,Rain-Thunderstorm,317
2012-10-26,44,39,34,27,25,22,75,60,45,30.40,30.34,30.18,10,10,10,18,11,23,0.00,6,,293
2012-10-27,45,37,29,28,22,13,92,61,30,30.42,30.38,30.34,10,10,10,10,3,14,0.00,1,,306
2012-10-28,48,37,25,28,22,18,88,60,31,30.43,30.38,30.34,10,10,10,8,1,16,0.00,0,,110
2012-10-29,50,38,25,27,24,21,88,61,34,30.42,30.35,30.25,10,10,10,7,3,9,0.00,2,,52
2012-10-30,51,40,28,29,23,20,85,59,32,30.25,30.11,30.01,10,10,10,22,12,25,0.00,0,,348
2012-10-31,49,37,25,27,21,16,81,55,29,30.03,29.99,29.94,10,10,10,15,8,20,0.00,1,,330